FDX558 KPWM-KBOS
Flight info
| Callsign | FDX558 |
|---|---|
| Flight time | 0h 52m |
| Altitude | 10000 |
| Route | ENE BOS |
| Aircraft | C208/L-V/C |
Departure
| Time | 2026-05-06 19:42 |
|---|---|
| Airport | Portland International Jetport (KPWM) |
Arrival
| Time | 2026-05-06 20:34 |
|---|---|
| Airport | Boston Logan International Airport (KBOS) |
| Time | Latitude | Longitude | Altitude | Speed | Heading |
|---|---|---|---|---|---|
| 2026-05-06 19:09 | 43.64811 | -70.30230 | 58 ft | 0 kts | 82° |
| 2026-05-06 19:31 | 43.64811 | -70.30229 | 58 ft | 0 kts | 82° |
| 2026-05-06 19:32 | 43.64833 | -70.30237 | 55 ft | 6 kts | 269° |
| 2026-05-06 19:32 | 43.64826 | -70.30294 | 59 ft | 11 kts | 258° |
| 2026-05-06 19:32 | 43.64802 | -70.30460 | 56 ft | 24 kts | 260° |
| 2026-05-06 19:32 | 43.64781 | -70.30645 | 58 ft | 14 kts | 266° |
| 2026-05-06 19:33 | 43.64847 | -70.30708 | 57 ft | 17 kts | 357° |
| 2026-05-06 19:33 | 43.64990 | -70.30713 | 55 ft | 24 kts | 358° |
| 2026-05-06 19:33 | 43.65156 | -70.30731 | 54 ft | 22 kts | 340° |
| 2026-05-06 19:33 | 43.65310 | -70.30808 | 52 ft | 25 kts | 340° |
| 2026-05-06 19:34 | 43.65346 | -70.30825 | 58 ft | 0 kts | 345° |
| 2026-05-06 19:40 | 43.65353 | -70.30827 | 52 ft | 5 kts | 345° |
| 2026-05-06 19:40 | 43.65398 | -70.30836 | 54 ft | 9 kts | 21° |
| 2026-05-06 19:40 | 43.65426 | -70.30742 | 58 ft | 15 kts | 113° |
| 2026-05-06 19:40 | 43.65344 | -70.30689 | 55 ft | 0 kts | 163° |
| 2026-05-06 19:41 | 43.65149 | -70.30609 | 53 ft | 51 kts | 163° |
| 2026-05-06 19:41 | 43.64721 | -70.30437 | 107 ft | 72 kts | 165° |
| 2026-05-06 19:41 | 43.64251 | -70.30223 | 277 ft | 72 kts | 166° |
| 2026-05-06 19:42 | 43.63766 | -70.29998 | 479 ft | 74 kts | 159° |
| 2026-05-06 19:42 | 43.63306 | -70.29697 | 745 ft | 73 kts | 158° |
| 2026-05-06 19:42 | 43.62870 | -70.29399 | 956 ft | 70 kts | 160° |
| 2026-05-06 19:42 | 43.62442 | -70.29014 | 1188 ft | 67 kts | 153° |
| 2026-05-06 19:43 | 43.62160 | -70.28528 | 1383 ft | 73 kts | 153° |
| 2026-05-06 19:43 | 43.61818 | -70.28108 | 1600 ft | 63 kts | 163° |
| 2026-05-06 19:43 | 43.61515 | -70.27732 | 1856 ft | 58 kts | 164° |
| 2026-05-06 19:43 | 43.61191 | -70.27337 | 2110 ft | 60 kts | 161° |
| 2026-05-06 19:44 | 43.60866 | -70.26769 | 2273 ft | 85 kts | 149° |
| 2026-05-06 19:44 | 43.60561 | -70.26205 | 2699 ft | 62 kts | 159° |
| 2026-05-06 19:44 | 43.60303 | -70.25737 | 2942 ft | 60 kts | 163° |
| 2026-05-06 19:44 | 43.59986 | -70.25261 | 2990 ft | 78 kts | 162° |
| 2026-05-06 19:45 | 43.59611 | -70.24768 | 3251 ft | 77 kts | 163° |
| 2026-05-06 19:45 | 43.59161 | -70.24241 | 3376 ft | 91 kts | 164° |
| 2026-05-06 19:45 | 43.58636 | -70.23676 | 3532 ft | 101 kts | 165° |
| 2026-05-06 19:45 | 43.58034 | -70.23053 | 3658 ft | 114 kts | 165° |
| 2026-05-06 19:46 | 43.57369 | -70.22377 | 3776 ft | 124 kts | 163° |
| 2026-05-06 19:46 | 43.56649 | -70.21654 | 3886 ft | 132 kts | 163° |
| 2026-05-06 19:46 | 43.55894 | -70.20902 | 3989 ft | 137 kts | 162° |
| 2026-05-06 19:46 | 43.55113 | -70.20133 | 4087 ft | 140 kts | 163° |
| 2026-05-06 19:47 | 43.54310 | -70.19356 | 4182 ft | 142 kts | 163° |
| 2026-05-06 19:47 | 43.53489 | -70.18566 | 4271 ft | 143 kts | 164° |
| 2026-05-06 19:47 | 43.52650 | -70.17926 | 4353 ft | 131 kts | 178° |
| 2026-05-06 19:47 | 43.51788 | -70.17675 | 4442 ft | 121 kts | 191° |
| 2026-05-06 19:48 | 43.51191 | -70.18221 | 4549 ft | 112 kts | 245° |
| 2026-05-06 19:48 | 43.51046 | -70.19289 | 4653 ft | 115 kts | 252° |
| 2026-05-06 19:48 | 43.51038 | -70.20427 | 4753 ft | 121 kts | 259° |
| 2026-05-06 19:48 | 43.51108 | -70.21582 | 4846 ft | 123 kts | 262° |
| 2026-05-06 19:49 | 43.51172 | -70.22366 | 4907 ft | 124 kts | 262° |
| 2026-05-06 19:49 | 43.51275 | -70.23551 | 5004 ft | 124 kts | 262° |
| 2026-05-06 19:49 | 43.51368 | -70.24725 | 5099 ft | 124 kts | 262° |
| 2026-05-06 19:49 | 43.51467 | -70.26305 | 5224 ft | 124 kts | 260° |
| 2026-05-06 19:50 | 43.51506 | -70.27095 | 5284 ft | 123 kts | 259° |
| 2026-05-06 19:50 | 43.51527 | -70.28260 | 5380 ft | 120 kts | 255° |
| 2026-05-06 19:50 | 43.51467 | -70.29394 | 5472 ft | 118 kts | 252° |
| 2026-05-06 19:50 | 43.51377 | -70.30508 | 5572 ft | 117 kts | 251° |
| 2026-05-06 19:51 | 43.51273 | -70.31621 | 5675 ft | 116 kts | 250° |
| 2026-05-06 19:51 | 43.50908 | -70.32506 | 5782 ft | 108 kts | 218° |
| 2026-05-06 19:51 | 43.50274 | -70.33062 | 5879 ft | 109 kts | 216° |
| 2026-05-06 19:51 | 43.49618 | -70.33581 | 5977 ft | 109 kts | 216° |
| 2026-05-06 19:52 | 43.48963 | -70.34113 | 6076 ft | 109 kts | 216° |
| 2026-05-06 19:52 | 43.48310 | -70.34649 | 6173 ft | 109 kts | 216° |
| 2026-05-06 19:52 | 43.47661 | -70.35187 | 6265 ft | 109 kts | 216° |
| 2026-05-06 19:52 | 43.47019 | -70.35726 | 6352 ft | 109 kts | 216° |
| 2026-05-06 19:53 | 43.46377 | -70.36280 | 6431 ft | 108 kts | 216° |
| 2026-05-06 19:53 | 43.45745 | -70.36842 | 6519 ft | 108 kts | 217° |
| 2026-05-06 19:53 | 43.45116 | -70.37408 | 6602 ft | 107 kts | 217° |
| 2026-05-06 19:53 | 43.44491 | -70.37970 | 6687 ft | 107 kts | 217° |
| 2026-05-06 19:54 | 43.43873 | -70.38520 | 6754 ft | 106 kts | 217° |
| 2026-05-06 19:54 | 43.43252 | -70.39073 | 6860 ft | 105 kts | 217° |
| 2026-05-06 19:54 | 43.42639 | -70.39616 | 6955 ft | 105 kts | 217° |
| 2026-05-06 19:54 | 43.42024 | -70.40158 | 7046 ft | 105 kts | 217° |
| 2026-05-06 19:55 | 43.41416 | -70.40698 | 7140 ft | 105 kts | 217° |
| 2026-05-06 19:55 | 43.40802 | -70.41242 | 7239 ft | 105 kts | 217° |
| 2026-05-06 19:55 | 43.40195 | -70.41779 | 7338 ft | 104 kts | 217° |
| 2026-05-06 19:55 | 43.39581 | -70.42322 | 7430 ft | 104 kts | 217° |
| 2026-05-06 19:56 | 43.38968 | -70.42862 | 7519 ft | 104 kts | 217° |
| 2026-05-06 19:56 | 43.38360 | -70.43400 | 7633 ft | 103 kts | 217° |
| 2026-05-06 19:56 | 43.37762 | -70.43932 | 7740 ft | 103 kts | 217° |
| 2026-05-06 19:56 | 43.37160 | -70.44473 | 7834 ft | 102 kts | 217° |
| 2026-05-06 19:57 | 43.36573 | -70.45035 | 7941 ft | 102 kts | 219° |
| 2026-05-06 19:57 | 43.36004 | -70.45613 | 8045 ft | 102 kts | 219° |
| 2026-05-06 19:57 | 43.35434 | -70.46202 | 8164 ft | 103 kts | 220° |
| 2026-05-06 19:57 | 43.34864 | -70.46800 | 8290 ft | 104 kts | 220° |
| 2026-05-06 19:58 | 43.34285 | -70.47410 | 8419 ft | 105 kts | 220° |
| 2026-05-06 19:58 | 43.33706 | -70.48018 | 8539 ft | 106 kts | 220° |
| 2026-05-06 19:58 | 43.33116 | -70.48637 | 8651 ft | 106 kts | 220° |
| 2026-05-06 19:58 | 43.32527 | -70.49256 | 8770 ft | 107 kts | 220° |
| 2026-05-06 19:59 | 43.31934 | -70.49875 | 8881 ft | 107 kts | 220° |
| 2026-05-06 19:59 | 43.31344 | -70.50498 | 8988 ft | 107 kts | 220° |
| 2026-05-06 19:59 | 43.30757 | -70.51123 | 9092 ft | 106 kts | 220° |
| 2026-05-06 19:59 | 43.30170 | -70.51740 | 9186 ft | 106 kts | 220° |
| 2026-05-06 20:00 | 43.29585 | -70.52346 | 9289 ft | 106 kts | 220° |
| 2026-05-06 20:00 | 43.28996 | -70.52952 | 9384 ft | 105 kts | 220° |
| 2026-05-06 20:00 | 43.28407 | -70.53552 | 9484 ft | 105 kts | 219° |
| 2026-05-06 20:00 | 43.27768 | -70.54044 | 9580 ft | 105 kts | 213° |
| 2026-05-06 20:01 | 43.27097 | -70.54462 | 9679 ft | 106 kts | 211° |
| 2026-05-06 20:01 | 43.26402 | -70.54819 | 9739 ft | 108 kts | 209° |
| 2026-05-06 20:01 | 43.25683 | -70.55167 | 9766 ft | 112 kts | 208° |
| 2026-05-06 20:01 | 43.24940 | -70.55528 | 9784 ft | 115 kts | 208° |
| 2026-05-06 20:02 | 43.24182 | -70.55909 | 9796 ft | 117 kts | 208° |
| 2026-05-06 20:02 | 43.23403 | -70.56308 | 9800 ft | 120 kts | 208° |
| 2026-05-06 20:02 | 43.22617 | -70.56715 | 9802 ft | 122 kts | 209° |
| 2026-05-06 20:02 | 43.21831 | -70.57135 | 9806 ft | 122 kts | 210° |
| 2026-05-06 20:03 | 43.21044 | -70.57599 | 9808 ft | 123 kts | 211° |
| 2026-05-06 20:03 | 43.20260 | -70.58074 | 9809 ft | 124 kts | 211° |
| 2026-05-06 20:03 | 43.19470 | -70.58561 | 9792 ft | 124 kts | 212° |
| 2026-05-06 20:03 | 43.18695 | -70.59047 | 9794 ft | 124 kts | 212° |
| 2026-05-06 20:04 | 43.17910 | -70.59534 | 9786 ft | 123 kts | 212° |
| 2026-05-06 20:04 | 43.17134 | -70.60027 | 9787 ft | 122 kts | 213° |
| 2026-05-06 20:04 | 43.16379 | -70.60549 | 9790 ft | 122 kts | 214° |
| 2026-05-06 20:04 | 43.15625 | -70.61099 | 9789 ft | 121 kts | 214° |
| 2026-05-06 20:05 | 43.14885 | -70.61654 | 9794 ft | 121 kts | 214° |
| 2026-05-06 20:05 | 43.14148 | -70.62212 | 9794 ft | 121 kts | 214° |
| 2026-05-06 20:05 | 43.13397 | -70.62730 | 9797 ft | 122 kts | 212° |
| 2026-05-06 20:05 | 43.12609 | -70.63199 | 9803 ft | 123 kts | 210° |
| 2026-05-06 20:06 | 43.11812 | -70.63638 | 9800 ft | 124 kts | 210° |
| 2026-05-06 20:06 | 43.11006 | -70.64064 | 9800 ft | 124 kts | 209° |
| 2026-05-06 20:06 | 43.10196 | -70.64489 | 9801 ft | 125 kts | 209° |
| 2026-05-06 20:06 | 43.09383 | -70.64910 | 9807 ft | 126 kts | 209° |
| 2026-05-06 20:07 | 43.08549 | -70.65330 | 9807 ft | 127 kts | 209° |
| 2026-05-06 20:07 | 43.07670 | -70.65607 | 9805 ft | 133 kts | 200° |
| 2026-05-06 20:07 | 43.06753 | -70.65750 | 9804 ft | 134 kts | 198° |
| 2026-05-06 20:07 | 43.05810 | -70.65865 | 9799 ft | 135 kts | 197° |
| 2026-05-06 20:08 | 43.04896 | -70.66023 | 9794 ft | 129 kts | 205° |
| 2026-05-06 20:08 | 43.04028 | -70.66338 | 9791 ft | 129 kts | 205° |
| 2026-05-06 20:08 | 43.03174 | -70.66671 | 9796 ft | 128 kts | 206° |
| 2026-05-06 20:08 | 43.02318 | -70.67033 | 9800 ft | 128 kts | 207° |
| 2026-05-06 20:09 | 43.01495 | -70.67462 | 9797 ft | 127 kts | 211° |
| 2026-05-06 20:09 | 43.00684 | -70.67956 | 9803 ft | 127 kts | 212° |
| 2026-05-06 20:09 | 42.99887 | -70.68467 | 9804 ft | 126 kts | 212° |
| 2026-05-06 20:09 | 42.99102 | -70.68984 | 9801 ft | 126 kts | 213° |
| 2026-05-06 20:10 | 42.98262 | -70.69403 | 9801 ft | 129 kts | 205° |
| 2026-05-06 20:10 | 42.97379 | -70.69660 | 9791 ft | 130 kts | 202° |
| 2026-05-06 20:10 | 42.96481 | -70.69868 | 9785 ft | 130 kts | 201° |
| 2026-05-06 20:10 | 42.95595 | -70.70047 | 9789 ft | 129 kts | 200° |
| 2026-05-06 20:11 | 42.94703 | -70.70221 | 9789 ft | 129 kts | 201° |
| 2026-05-06 20:11 | 42.93820 | -70.70439 | 9789 ft | 127 kts | 202° |
| 2026-05-06 20:11 | 42.92954 | -70.70688 | 9791 ft | 127 kts | 204° |
| 2026-05-06 20:11 | 42.92116 | -70.70990 | 9800 ft | 125 kts | 206° |
| 2026-05-06 20:12 | 42.91274 | -70.71344 | 9799 ft | 125 kts | 207° |
| 2026-05-06 20:12 | 42.90446 | -70.71713 | 9794 ft | 125 kts | 207° |
| 2026-05-06 20:12 | 42.89619 | -70.72092 | 9794 ft | 125 kts | 208° |
| 2026-05-06 20:12 | 42.88802 | -70.72473 | 9799 ft | 125 kts | 208° |
| 2026-05-06 20:13 | 42.87976 | -70.72859 | 9796 ft | 125 kts | 208° |
| 2026-05-06 20:13 | 42.87157 | -70.73236 | 9790 ft | 124 kts | 208° |
| 2026-05-06 20:13 | 42.86342 | -70.73614 | 9792 ft | 125 kts | 208° |
| 2026-05-06 20:13 | 42.85518 | -70.73998 | 9798 ft | 125 kts | 208° |
| 2026-05-06 20:14 | 42.84694 | -70.74381 | 9799 ft | 125 kts | 207° |
| 2026-05-06 20:14 | 42.83874 | -70.74755 | 9797 ft | 125 kts | 208° |
| 2026-05-06 20:14 | 42.83042 | -70.75139 | 9806 ft | 125 kts | 208° |
| 2026-05-06 20:14 | 42.82215 | -70.75526 | 9805 ft | 126 kts | 208° |
| 2026-05-06 20:15 | 42.81389 | -70.75917 | 9821 ft | 125 kts | 208° |
| 2026-05-06 20:15 | 42.80569 | -70.76303 | 9820 ft | 125 kts | 208° |
| 2026-05-06 20:15 | 42.79751 | -70.76683 | 9817 ft | 124 kts | 208° |
| 2026-05-06 20:15 | 42.78930 | -70.77066 | 9814 ft | 124 kts | 208° |
| 2026-05-06 20:16 | 42.78106 | -70.77447 | 9815 ft | 124 kts | 208° |
| 2026-05-06 20:16 | 42.77298 | -70.77818 | 9815 ft | 124 kts | 208° |
| 2026-05-06 20:16 | 42.76485 | -70.78190 | 9816 ft | 123 kts | 208° |
| 2026-05-06 20:16 | 42.75667 | -70.78568 | 9766 ft | 125 kts | 208° |
| 2026-05-06 20:17 | 42.74856 | -70.78952 | 9643 ft | 122 kts | 208° |
| 2026-05-06 20:17 | 42.74069 | -70.79322 | 9531 ft | 117 kts | 208° |
| 2026-05-06 20:17 | 42.73314 | -70.79670 | 9415 ft | 113 kts | 208° |
| 2026-05-06 20:17 | 42.72572 | -70.80007 | 9288 ft | 109 kts | 208° |
| 2026-05-06 20:18 | 42.71861 | -70.80330 | 9160 ft | 107 kts | 208° |
| 2026-05-06 20:18 | 42.71166 | -70.80639 | 9030 ft | 102 kts | 208° |
| 2026-05-06 20:18 | 42.70505 | -70.80916 | 8860 ft | 98 kts | 208° |
| 2026-05-06 20:18 | 42.69806 | -70.81226 | 8354 ft | 109 kts | 208° |
| 2026-05-06 20:19 | 42.69080 | -70.81574 | 7857 ft | 112 kts | 211° |
| 2026-05-06 20:19 | 42.68653 | -70.82406 | 7375 ft | 117 kts | 246° |
| 2026-05-06 20:19 | 42.68475 | -70.83517 | 6891 ft | 122 kts | 249° |
| 2026-05-06 20:19 | 42.68332 | -70.84670 | 6429 ft | 125 kts | 250° |
| 2026-05-06 20:20 | 42.68180 | -70.85824 | 5935 ft | 121 kts | 241° |
| 2026-05-06 20:20 | 42.67541 | -70.86423 | 5437 ft | 127 kts | 191° |
| 2026-05-06 20:20 | 42.66633 | -70.86032 | 4925 ft | 140 kts | 172° |
| 2026-05-06 20:20 | 42.65752 | -70.85450 | 4413 ft | 143 kts | 169° |
| 2026-05-06 20:21 | 42.64978 | -70.84889 | 3966 ft | 144 kts | 168° |
| 2026-05-06 20:21 | 42.64088 | -70.84461 | 3460 ft | 124 kts | 196° |
| 2026-05-06 20:21 | 42.63428 | -70.85048 | 2963 ft | 115 kts | 224° |
| 2026-05-06 20:21 | 42.62931 | -70.85900 | 2448 ft | 117 kts | 231° |
| 2026-05-06 20:22 | 42.62478 | -70.86851 | 1932 ft | 120 kts | 232° |
| 2026-05-06 20:22 | 42.62050 | -70.87754 | 1729 ft | 101 kts | 222° |
| 2026-05-06 20:22 | 42.61595 | -70.88289 | 1712 ft | 74 kts | 206° |
| 2026-05-06 20:22 | 42.61171 | -70.88472 | 1631 ft | 58 kts | 188° |
| 2026-05-06 20:23 | 42.60762 | -70.88395 | 1374 ft | 68 kts | 180° |
| 2026-05-06 20:23 | 42.60322 | -70.88491 | 1115 ft | 56 kts | 197° |
| 2026-05-06 20:23 | 42.59978 | -70.88632 | 1421 ft | 52 kts | 208° |
| 2026-05-06 20:23 | 42.59688 | -70.88845 | 1766 ft | 49 kts | 194° |
| 2026-05-06 20:24 | 42.59220 | -70.88721 | 1789 ft | 78 kts | 181° |
| 2026-05-06 20:24 | 42.58610 | -70.88711 | 1904 ft | 99 kts | 192° |
| 2026-05-06 20:24 | 42.57918 | -70.88873 | 2159 ft | 95 kts | 209° |
| 2026-05-06 20:24 | 42.57434 | -70.89362 | 2402 ft | 101 kts | 223° |
| 2026-05-06 20:25 | 42.57060 | -70.89994 | 2906 ft | 85 kts | 227° |
| 2026-05-06 20:25 | 42.56699 | -70.90611 | 3262 ft | 66 kts | 217° |
| 2026-05-06 20:25 | 42.56247 | -70.90763 | 3478 ft | 79 kts | 195° |
| 2026-05-06 20:25 | 42.55862 | -70.90750 | 3661 ft | 80 kts | 193° |
| 2026-05-06 20:26 | 42.55325 | -70.90726 | 3936 ft | 80 kts | 195° |
| 2026-05-06 20:26 | 42.54763 | -70.90784 | 4065 ft | 81 kts | 200° |
| 2026-05-06 20:26 | 42.54122 | -70.91145 | 3523 ft | 115 kts | 218° |
| 2026-05-06 20:26 | 42.53580 | -70.91882 | 3650 ft | 101 kts | 225° |
| 2026-05-06 20:27 | 42.53058 | -70.92595 | 3433 ft | 101 kts | 219° |
| 2026-05-06 20:27 | 42.52491 | -70.93054 | 3458 ft | 82 kts | 210° |
| 2026-05-06 20:27 | 42.51960 | -70.93250 | 3325 ft | 85 kts | 198° |
| 2026-05-06 20:27 | 42.51359 | -70.93343 | 2955 ft | 89 kts | 200° |
| 2026-05-06 20:28 | 42.50809 | -70.93689 | 2636 ft | 80 kts | 215° |
| 2026-05-06 20:28 | 42.50380 | -70.93968 | 2381 ft | 74 kts | 205° |
| 2026-05-06 20:28 | 42.49900 | -70.94050 | 2347 ft | 66 kts | 192° |
| 2026-05-06 20:28 | 42.49424 | -70.94183 | 2061 ft | 81 kts | 206° |
| 2026-05-06 20:29 | 42.48959 | -70.94462 | 2209 ft | 68 kts | 209° |
| 2026-05-06 20:29 | 42.48499 | -70.94770 | 2104 ft | 73 kts | 207° |
| 2026-05-06 20:29 | 42.47976 | -70.94971 | 2084 ft | 84 kts | 191° |
| 2026-05-06 20:29 | 42.47368 | -70.94982 | 1924 ft | 89 kts | 198° |
| 2026-05-06 20:30 | 42.46852 | -70.95250 | 1977 ft | 81 kts | 213° |
| 2026-05-06 20:30 | 42.45835 | -70.96222 | 1598 ft | 87 kts | 207° |
| 2026-05-06 20:30 | 42.45273 | -70.96448 | 1621 ft | 86 kts | 192° |
| 2026-05-06 20:31 | 42.44599 | -70.96585 | 1347 ft | 111 kts | 197° |
| 2026-05-06 20:31 | 42.43898 | -70.96943 | 1462 ft | 104 kts | 205° |
| 2026-05-06 20:31 | 42.43207 | -70.97283 | 1306 ft | 117 kts | 199° |
| 2026-05-06 20:31 | 42.42482 | -70.97679 | 1482 ft | 99 kts | 204° |
| 2026-05-06 20:32 | 42.41862 | -70.98003 | 1448 ft | 97 kts | 198° |
| 2026-05-06 20:32 | 42.41198 | -70.98227 | 1370 ft | 92 kts | 198° |
| 2026-05-06 20:32 | 42.40593 | -70.98498 | 1159 ft | 90 kts | 200° |
| 2026-05-06 20:32 | 42.40061 | -70.98776 | 959 ft | 77 kts | 204° |
| 2026-05-06 20:33 | 42.39582 | -70.99013 | 729 ft | 70 kts | 204° |
| 2026-05-06 20:33 | 42.39111 | -70.99237 | 622 ft | 75 kts | 198° |
| 2026-05-06 20:33 | 42.38626 | -70.99505 | 495 ft | 67 kts | 197° |
| 2026-05-06 20:33 | 42.38199 | -70.99707 | 309 ft | 66 kts | 197° |
| 2026-05-06 20:34 | 42.37787 | -70.99904 | 191 ft | 60 kts | 196° |
| 2026-05-06 20:34 | 42.37419 | -71.00077 | 110 ft | 55 kts | 198° |
| 2026-05-06 20:34 | 42.37066 | -71.00242 | 52 ft | 48 kts | 197° |
| 2026-05-06 20:34 | 42.36794 | -71.00365 | 23 ft | 32 kts | 198° |
| 2026-05-06 20:35 | 42.36625 | -71.00446 | 24 ft | 22 kts | 199° |
| 2026-05-06 20:35 | 42.36464 | -71.00522 | 27 ft | 27 kts | 201° |
| 2026-05-06 20:35 | 42.36332 | -71.00593 | 26 ft | 25 kts | 195° |
| 2026-05-06 20:35 | 42.36142 | -71.00681 | 21 ft | 30 kts | 200° |
| 2026-05-06 20:36 | 42.35932 | -71.00782 | 21 ft | 34 kts | 199° |
| 2026-05-06 20:36 | 42.35695 | -71.00896 | 22 ft | 38 kts | 199° |
| 2026-05-06 20:36 | 42.35439 | -71.01016 | 28 ft | 37 kts | 204° |
| 2026-05-06 20:36 | 42.35255 | -71.01119 | 28 ft | 22 kts | 200° |
| 2026-05-06 20:37 | 42.35223 | -71.01246 | 27 ft | 20 kts | 307° |
| 2026-05-06 20:37 | 42.35303 | -71.01403 | 24 ft | 15 kts | 312° |
| 2026-05-06 20:37 | 42.35369 | -71.01532 | 24 ft | 21 kts | 298° |
| 2026-05-06 20:37 | 42.35463 | -71.01692 | 23 ft | 0 kts | 322° |
| 2026-05-06 20:38 | 42.35486 | -71.01710 | 25 ft | 8 kts | 342° |
| 2026-05-06 20:38 | 42.35570 | -71.01702 | 28 ft | 15 kts | 16° |
| 2026-05-06 20:38 | 42.35601 | -71.01689 | 26 ft | 0 kts | 23° |
| 2026-05-06 20:39 | 42.35604 | -71.01687 | 26 ft | 4 kts | 24° |
| 2026-05-06 20:39 | 42.35670 | -71.01653 | 25 ft | 13 kts | 21° |
| 2026-05-06 20:39 | 42.35747 | -71.01618 | 28 ft | 10 kts | 14° |
| 2026-05-06 20:40 | 42.35815 | -71.01621 | 27 ft | 12 kts | 311° |
| 2026-05-06 20:40 | 42.35840 | -71.01749 | 27 ft | 16 kts | 279° |
| 2026-05-06 20:40 | 42.35875 | -71.01897 | 25 ft | 18 kts | 299° |
| 2026-05-06 20:40 | 42.35888 | -71.01969 | 24 ft | 3 kts | 206° |
| 2026-05-06 20:41 | 42.35850 | -71.01995 | 24 ft | 9 kts | 211° |
| 2026-05-06 20:41 | 42.35833 | -71.02010 | 24 ft | 0 kts | 213° |